createdAt,value
2018-05-19T00:00:12.185Z,40.80
2018-05-19T00:02:39.682Z,25.90
2018-05-19T00:05:07.219Z,30.23
2018-05-19T00:07:35.490Z,32.63
2018-05-19T00:10:03.038Z,31.37
2018-05-19T00:12:30.535Z,30.73
2018-05-19T00:14:58.062Z,28.67
2018-05-19T00:17:25.630Z,30.37
2018-05-19T00:19:53.310Z,33.73
2018-05-19T00:22:20.804Z,28.33
2018-05-19T00:24:48.301Z,29.10
2018-05-19T00:27:15.845Z,32.90
2018-05-19T00:29:43.506Z,29.87
2018-05-19T00:32:11.035Z,28.87
2018-05-19T00:34:38.526Z,32.23
2018-05-19T00:37:06.076Z,31.20
2018-05-19T00:39:33.574Z,36.97
2018-05-19T00:42:01.103Z,34.43
2018-05-19T00:44:28.602Z,31.50
2018-05-19T00:46:56.150Z,42.30
2018-05-19T00:49:23.655Z,40.37
2018-05-19T00:51:51.198Z,36.93
2018-05-19T00:54:18.697Z,40.13
2018-05-19T00:56:46.234Z,39.60
2018-05-19T00:59:13.811Z,36.13
2018-05-19T01:01:41.339Z,30.30
2018-05-19T01:04:08.958Z,28.53
2018-05-19T01:06:36.497Z,32.57
2018-05-19T01:09:04.051Z,35.87
2018-05-19T01:11:31.603Z,32.10
2018-05-19T01:13:59.096Z,32.77
2018-05-19T01:16:27.388Z,34.20
2018-05-19T01:18:54.922Z,31.70
2018-05-19T01:21:22.460Z,32.43
2018-05-19T01:23:49.967Z,66.40
2018-05-19T01:26:17.494Z,27.40
2018-05-19T01:28:45.007Z,35.30
2018-05-19T01:31:12.502Z,26.97
2018-05-19T01:33:40.036Z,33.70
2018-05-19T01:36:07.534Z,38.40
2018-05-19T01:38:35.072Z,35.90
2018-05-19T01:41:02.623Z,32.07
2018-05-19T01:43:30.123Z,42.53
2018-05-19T01:45:57.656Z,33.20
2018-05-19T01:48:25.151Z,29.33
2018-05-19T01:50:52.686Z,31.00
2018-05-19T01:53:20.182Z,32.67
2018-05-19T01:55:47.735Z,36.53
2018-05-19T01:58:15.240Z,42.77
2018-05-19T02:00:42.798Z,36.03
2018-05-19T02:03:10.339Z,33.67
2018-05-19T02:05:37.875Z,34.70
2018-05-19T02:08:05.510Z,49.20
2018-05-19T02:10:33.019Z,37.47
2018-05-19T02:13:00.566Z,32.60
2018-05-19T02:15:28.085Z,31.07
2018-05-19T02:17:56.577Z,36.40
2018-05-19T02:20:24.079Z,36.57
2018-05-19T02:22:51.628Z,40.03
2018-05-19T02:25:19.168Z,40.20
2018-05-19T02:27:46.671Z,38.47
2018-05-19T02:30:14.214Z,35.10
2018-05-19T02:32:41.712Z,36.23
2018-05-19T02:35:09.250Z,36.27
2018-05-19T02:37:36.766Z,37.30
2018-05-19T02:40:04.310Z,38.70
2018-05-19T02:42:31.844Z,38.17
2018-05-19T02:45:00.959Z,44.37
2018-05-19T02:47:28.463Z,33.10
2018-05-19T02:49:56.016Z,53.60
2018-05-19T02:52:23.518Z,42.67
2018-05-19T02:54:51.829Z,35.70
2018-05-19T02:57:19.326Z,37.23
2018-05-19T02:59:47.074Z,38.43
2018-05-19T03:02:14.623Z,35.43
2018-05-19T03:04:42.131Z,38.73
2018-05-19T03:07:09.675Z,39.43
2018-05-19T03:09:37.174Z,40.87
2018-05-19T03:12:07.471Z,38.83
2018-05-19T03:14:34.967Z,36.30
2018-05-19T03:17:02.555Z,47.20
2018-05-19T03:19:30.052Z,39.77
2018-05-19T03:21:58.354Z,45.00
2018-05-19T03:24:25.859Z,38.47
2018-05-19T03:26:53.395Z,49.93
2018-05-19T03:29:20.900Z,48.40
2018-05-19T03:31:49.204Z,38.20
2018-05-19T03:34:16.718Z,44.57
2018-05-19T03:36:44.262Z,55.87
2018-05-19T03:39:11.753Z,39.60
2018-05-19T03:41:40.072Z,45.10
2018-05-19T03:44:07.569Z,52.20
2018-05-19T03:46:35.066Z,42.23
2018-05-19T03:49:02.605Z,48.63
2018-05-19T03:51:30.878Z,45.67
2018-05-19T03:53:59.274Z,43.63
2018-05-19T03:56:26.694Z,45.90
2018-05-19T03:59:07.678Z,49.40
2018-05-19T04:01:48.515Z,42.03
2018-05-19T04:04:16.055Z,43.90
2018-05-19T04:06:43.554Z,41.07
2018-05-19T04:09:11.088Z,46.57
2018-05-19T04:11:38.583Z,44.40
2018-05-19T04:14:06.118Z,54.33
2018-05-19T04:16:33.632Z,43.50
2018-05-19T04:19:01.175Z,40.37
2018-05-19T04:21:29.461Z,48.60
2018-05-19T04:23:57.932Z,47.43
2018-05-19T04:26:26.212Z,42.37
2018-05-19T04:28:54.807Z,42.10
2018-05-19T04:31:22.307Z,50.00
2018-05-19T04:33:49.816Z,41.33
2018-05-19T04:36:18.118Z,48.30
2018-05-19T04:38:45.667Z,44.67
2018-05-19T04:41:13.190Z,57.03
2018-05-19T04:43:40.685Z,41.70
2018-05-19T04:46:08.220Z,43.23
2018-05-19T04:48:35.826Z,45.47
2018-05-19T04:51:03.357Z,47.33
2018-05-19T04:53:30.865Z,46.50
2018-05-19T04:55:58.397Z,45.13
2018-05-19T04:58:25.894Z,39.77
2018-05-19T05:00:54.191Z,42.67
2018-05-19T05:03:21.714Z,45.73
2018-05-19T05:05:49.311Z,48.07
2018-05-19T05:08:16.819Z,39.63
2018-05-19T05:10:44.362Z,43.33
2018-05-19T05:13:11.873Z,36.80
2018-05-19T05:15:39.433Z,47.13
2018-05-19T05:18:06.939Z,49.70
2018-05-19T05:20:34.477Z,53.23
2018-05-19T05:23:01.985Z,53.60
2018-05-19T05:25:29.849Z,41.67
2018-05-19T05:27:57.354Z,39.30
2018-05-19T05:30:25.655Z,39.70
2018-05-19T05:32:53.166Z,41.90
2018-05-19T05:35:20.695Z,41.70
2018-05-19T05:37:48.180Z,46.13
2018-05-19T05:40:15.720Z,55.60
2018-05-19T05:42:43.227Z,42.00
2018-05-19T05:45:10.767Z,41.93
2018-05-19T05:47:39.035Z,48.27
2018-05-19T05:50:06.665Z,48.97
2018-05-19T05:52:34.101Z,50.60
2018-05-19T05:55:01.683Z,49.43
2018-05-19T05:57:29.184Z,41.07
2018-05-19T05:59:56.765Z,37.33
2018-05-19T06:02:24.198Z,34.00
2018-05-19T06:04:52.513Z,49.20
2018-05-19T06:07:20.232Z,41.10
2018-05-19T06:09:48.595Z,44.40
2018-05-19T06:12:16.200Z,42.47
2018-05-19T06:14:43.682Z,52.33
2018-05-19T06:17:11.183Z,32.50
2018-05-19T06:19:38.750Z,46.53
2018-05-19T06:22:06.453Z,40.07
2018-05-19T06:24:34.015Z,45.40
2018-05-19T06:27:01.523Z,57.20
2018-05-19T06:29:29.785Z,40.63
2018-05-19T06:31:57.346Z,46.10
2018-05-19T06:34:24.834Z,44.63
2018-05-19T06:36:53.129Z,41.53
2018-05-19T06:39:20.632Z,46.00
2018-05-19T06:41:48.173Z,46.30
2018-05-19T06:44:15.689Z,38.57
2018-05-19T06:46:43.995Z,45.50
2018-05-19T06:49:11.508Z,43.20
2018-05-19T06:51:39.064Z,40.77
2018-05-19T06:54:06.571Z,43.97
2018-05-19T06:56:34.128Z,41.43
2018-05-19T06:59:01.635Z,43.63
2018-05-19T07:01:29.175Z,43.23
2018-05-19T07:03:56.686Z,42.93
2018-05-19T07:06:24.230Z,41.70
2018-05-19T07:08:52.500Z,42.77
2018-05-19T07:11:20.802Z,39.83
2018-05-19T07:13:48.335Z,34.53
2018-05-19T07:16:15.873Z,42.17
2018-05-19T07:18:43.378Z,39.67
2018-05-19T07:21:10.945Z,40.37
2018-05-19T07:23:38.463Z,38.43
2018-05-19T07:26:05.999Z,40.63
2018-05-19T07:28:33.675Z,44.20
2018-05-19T07:31:01.222Z,44.87
2018-05-19T07:33:28.726Z,41.50
2018-05-19T07:35:56.991Z,43.97
2018-05-19T07:38:25.305Z,42.33
2018-05-19T07:40:52.818Z,41.50
2018-05-19T07:43:20.350Z,36.77
2018-05-19T07:45:47.862Z,33.87
2018-05-19T07:48:15.421Z,36.47
2018-05-19T07:50:42.966Z,35.30
2018-05-19T07:53:11.262Z,35.63
2018-05-19T07:55:38.791Z,32.87
2018-05-19T07:58:06.305Z,29.63
2018-05-19T08:00:33.867Z,37.40
2018-05-19T08:03:01.374Z,36.93
2018-05-19T08:05:29.001Z,44.50
2018-05-19T08:07:57.218Z,38.27
2018-05-19T08:10:25.521Z,37.37
2018-05-19T08:12:53.021Z,34.33
2018-05-19T08:15:20.568Z,35.23
2018-05-19T08:17:48.069Z,40.77
2018-05-19T08:20:16.446Z,39.77
2018-05-19T08:22:43.901Z,41.33
2018-05-19T08:25:11.568Z,49.03
2018-05-19T08:27:39.071Z,36.83
2018-05-19T08:30:06.675Z,44.40
2018-05-19T08:32:34.377Z,38.33
2018-05-19T08:35:02.013Z,35.33
2018-05-19T08:37:29.430Z,40.80
2018-05-19T08:39:56.965Z,35.10
2018-05-19T08:42:24.454Z,34.90
2018-05-19T08:44:51.996Z,40.57
2018-05-19T08:47:19.490Z,31.13
2018-05-19T08:49:47.033Z,38.80
2018-05-19T08:52:14.535Z,34.93
2018-05-19T08:54:42.094Z,41.10
2018-05-19T08:57:09.594Z,40.83
2018-05-19T08:59:37.127Z,38.50
2018-05-19T09:02:05.674Z,43.53
2018-05-19T09:04:33.210Z,48.13
2018-05-19T09:07:00.773Z,43.30
2018-05-19T09:09:28.331Z,45.67
2018-05-19T09:11:55.835Z,45.23
2018-05-19T09:14:23.428Z,39.63
2018-05-19T09:16:50.930Z,36.50
2018-05-19T09:19:19.211Z,38.90
2018-05-19T09:21:47.510Z,45.00
2018-05-19T09:24:15.038Z,42.73
2018-05-19T09:26:42.610Z,44.07
2018-05-19T09:29:10.874Z,43.17
2018-05-19T09:31:39.146Z,45.03
2018-05-19T09:34:07.450Z,47.10
2018-05-19T09:36:34.954Z,43.90
2018-05-19T09:39:02.494Z,51.83
2018-05-19T09:41:29.993Z,40.67
2018-05-19T09:43:57.530Z,41.13
2018-05-19T09:46:25.022Z,40.00
2018-05-19T09:48:52.559Z,42.27
2018-05-19T09:51:20.052Z,40.10
2018-05-19T09:53:47.596Z,41.70
2018-05-19T09:56:15.100Z,38.67
2018-05-19T09:58:42.647Z,50.83
2018-05-19T10:01:10.145Z,46.23
2018-05-19T10:03:37.864Z,38.67
2018-05-19T10:06:05.376Z,33.93
2018-05-19T10:08:33.209Z,43.53
2018-05-19T10:11:00.724Z,44.20
2018-05-19T10:13:29.053Z,44.70
2018-05-19T10:15:56.560Z,42.07
2018-05-19T10:18:24.058Z,49.40
2018-05-19T10:20:51.602Z,45.00
2018-05-19T10:23:19.598Z,39.60
2018-05-19T10:25:47.136Z,38.43
2018-05-19T10:28:14.682Z,39.70
2018-05-19T10:30:42.324Z,42.57
2018-05-19T10:33:09.831Z,42.40
2018-05-19T10:35:37.368Z,45.13
2018-05-19T10:38:04.889Z,45.97
2018-05-19T10:40:32.782Z,37.20
2018-05-19T10:43:00.290Z,41.63
2018-05-19T10:45:27.787Z,36.00
2018-05-19T10:47:55.319Z,44.00
2018-05-19T10:50:23.662Z,49.50
2018-05-19T10:52:51.206Z,42.80
2018-05-19T10:55:18.711Z,35.97
2018-05-19T10:57:46.267Z,37.50
2018-05-19T11:00:13.777Z,40.80
2018-05-19T11:02:41.310Z,40.77
2018-05-19T11:05:09.591Z,36.77
2018-05-19T11:07:38.005Z,39.50
2018-05-19T11:10:05.505Z,32.43
2018-05-19T11:12:33.065Z,39.37
2018-05-19T11:15:00.573Z,46.70
2018-05-19T11:17:28.118Z,39.77
2018-05-19T11:19:55.613Z,41.67
2018-05-19T11:22:23.180Z,35.90
2018-05-19T11:24:50.683Z,44.80
2018-05-19T11:27:18.982Z,48.30
2018-05-19T11:29:46.495Z,39.50
2018-05-19T11:32:14.038Z,47.97
2018-05-19T11:34:41.553Z,41.80
2018-05-19T11:37:09.102Z,46.43
2018-05-19T11:39:36.638Z,43.77
2018-05-19T11:42:04.955Z,37.50
2018-05-19T11:44:32.459Z,36.50
2018-05-19T11:47:00.773Z,38.30
2018-05-19T11:49:28.286Z,45.90
2018-05-19T11:51:55.786Z,45.87
2018-05-19T11:54:24.099Z,41.00
2018-05-19T11:56:51.621Z,42.37
2018-05-19T11:59:19.201Z,43.27
2018-05-19T12:01:46.710Z,37.83
2018-05-19T12:04:14.267Z,44.63
2018-05-19T12:06:41.780Z,33.97
2018-05-19T12:09:09.324Z,43.10
2018-05-19T12:11:36.849Z,41.63
2018-05-19T12:14:04.388Z,38.80
2018-05-19T12:16:31.900Z,36.83
2018-05-19T12:18:59.434Z,40.27
2018-05-19T12:21:27.703Z,35.43
2018-05-19T12:23:55.295Z,41.50
2018-05-19T12:26:22.801Z,40.07
2018-05-19T12:28:50.302Z,46.63
2018-05-19T12:31:18.607Z,39.20
2018-05-19T12:33:46.103Z,41.20
2018-05-19T12:36:13.650Z,36.47
2018-05-19T12:38:41.151Z,38.77
2018-05-19T12:41:09.459Z,32.87
2018-05-19T12:43:36.960Z,42.43
2018-05-19T12:46:04.506Z,36.53
2018-05-19T12:48:31.999Z,34.70
2018-05-19T12:51:00.298Z,33.03
2018-05-19T12:53:27.809Z,36.83
2018-05-19T12:55:55.471Z,34.50
2018-05-19T12:58:24.527Z,35.67
2018-05-19T13:00:52.115Z,34.97
2018-05-19T13:03:19.713Z,35.80
2018-05-19T13:05:47.282Z,39.03
2018-05-19T13:08:15.556Z,41.80
2018-05-19T13:10:43.864Z,44.03
2018-05-19T13:13:11.376Z,37.87
2018-05-19T13:15:38.937Z,42.00
2018-05-19T13:18:07.198Z,38.47
2018-05-19T13:20:34.748Z,36.57
2018-05-19T13:23:02.331Z,37.23
2018-05-19T13:25:30.623Z,38.50
2018-05-19T13:27:58.182Z,41.23
2018-05-19T13:30:25.688Z,37.80
2018-05-19T13:32:53.229Z,53.43
2018-05-19T13:35:20.730Z,41.57
2018-05-19T13:37:48.269Z,37.53
2018-05-19T13:40:15.775Z,47.20
2018-05-19T13:42:44.069Z,38.40
2018-05-19T13:45:11.590Z,36.90
2018-05-19T13:47:39.132Z,40.13
2018-05-19T13:50:06.639Z,36.30
2018-05-19T13:52:34.186Z,42.80
2018-05-19T13:55:01.722Z,37.20
2018-05-19T13:57:29.270Z,39.40
2018-05-19T13:59:56.776Z,37.90
2018-05-19T14:02:24.336Z,48.20
2018-05-19T14:04:51.865Z,39.50
2018-05-19T14:07:19.364Z,53.27
2018-05-19T14:09:47.007Z,40.47
2018-05-19T14:12:14.553Z,40.17
2018-05-19T14:14:42.088Z,49.23
2018-05-19T14:17:09.590Z,43.00
2018-05-19T14:19:37.145Z,47.90
2018-05-19T14:22:04.655Z,44.73
2018-05-19T14:24:32.207Z,40.43
2018-05-19T14:26:59.716Z,40.50
2018-05-19T14:29:28.026Z,37.53
2018-05-19T14:31:55.527Z,36.93
2018-05-19T14:34:23.093Z,41.13
2018-05-19T14:36:51.379Z,35.83
2018-05-19T14:39:19.687Z,41.10
2018-05-19T14:41:47.203Z,41.03
2018-05-19T14:44:14.788Z,38.77
2018-05-19T14:46:42.307Z,39.70
2018-05-19T14:49:09.863Z,42.00
2018-05-19T14:51:37.398Z,51.77
2018-05-19T14:54:04.905Z,40.17
2018-05-19T14:56:32.465Z,41.87
2018-05-19T14:59:00.723Z,38.63
2018-05-19T15:01:28.266Z,43.70
2018-05-19T15:03:55.783Z,41.03
2018-05-19T15:06:23.352Z,40.03
2018-05-19T15:08:50.851Z,42.17
2018-05-19T15:11:19.157Z,48.10
2018-05-19T15:13:46.683Z,47.57
2018-05-19T15:16:14.223Z,45.67
2018-05-19T15:18:41.723Z,46.47
2018-05-19T15:21:09.261Z,37.93
2018-05-19T15:23:36.780Z,38.57
2018-05-19T15:26:04.345Z,39.83
2018-05-19T15:28:31.856Z,41.10
2018-05-19T15:31:00.139Z,42.80
2018-05-19T15:33:28.434Z,42.23
2018-05-19T15:35:55.938Z,37.77
2018-05-19T15:38:23.469Z,35.30
2018-05-19T15:40:50.986Z,34.77
2018-05-19T15:43:19.315Z,34.60
2018-05-19T15:45:46.865Z,39.20
2018-05-19T15:48:14.434Z,41.40
2018-05-19T15:50:41.957Z,37.43
2018-05-19T15:53:09.525Z,36.83
2018-05-19T15:55:37.069Z,36.33
2018-05-19T15:58:04.627Z,33.63
2018-05-19T16:00:32.913Z,41.13
2018-05-19T16:03:01.341Z,41.07
2018-05-19T16:05:28.863Z,39.77
2018-05-19T16:07:56.405Z,35.50
2018-05-19T16:10:23.934Z,40.37
2018-05-19T16:12:51.511Z,32.67
2018-05-19T16:15:19.014Z,35.60
2018-05-19T16:17:46.554Z,30.20
2018-05-19T16:20:14.060Z,28.63
2018-05-19T16:22:41.617Z,31.77
2018-05-19T16:25:09.121Z,33.20
2018-05-19T16:27:36.629Z,34.80
2018-05-19T16:30:04.183Z,30.80
2018-05-19T16:32:31.703Z,33.47
2018-05-19T16:34:59.249Z,29.00
2018-05-19T16:37:27.535Z,32.90
2018-05-19T16:39:55.844Z,35.83
2018-05-19T16:42:23.348Z,33.13
2018-05-19T16:44:51.677Z,38.53
2018-05-19T16:47:19.180Z,33.40
2018-05-19T16:49:46.723Z,29.07
2018-05-19T16:52:14.285Z,34.13
2018-05-19T16:54:41.836Z,34.20
2018-05-19T16:57:09.332Z,36.10
2018-05-19T16:59:36.876Z,30.63
2018-05-19T17:02:04.370Z,32.77
2018-05-19T17:04:31.931Z,32.43
2018-05-19T17:06:59.467Z,37.00
2018-05-19T17:09:27.795Z,32.67
2018-05-19T17:11:55.311Z,34.57
2018-05-19T17:14:22.811Z,38.40
2018-05-19T17:16:50.365Z,32.83
2018-05-19T17:19:17.862Z,29.57
2018-05-19T17:21:46.179Z,36.47
2018-05-19T17:24:13.682Z,35.63
2018-05-19T17:26:41.222Z,34.03
2018-05-19T17:29:08.733Z,36.57
2018-05-19T17:31:36.293Z,32.43
2018-05-19T17:34:04.580Z,34.10
2018-05-19T17:36:32.150Z,38.53
2018-05-19T17:38:59.676Z,35.13
2018-05-19T17:41:28.096Z,36.43
2018-05-19T17:43:55.615Z,37.00
2018-05-19T17:46:23.162Z,42.23
2018-05-19T17:48:50.671Z,41.63
2018-05-19T17:51:18.177Z,34.13
2018-05-19T17:53:45.734Z,32.03
2018-05-19T17:56:13.243Z,36.60
2018-05-19T17:58:40.798Z,31.50
2018-05-19T18:01:08.302Z,32.23
2018-05-19T18:03:35.839Z,40.20
2018-05-19T18:06:03.334Z,36.33
2018-05-19T18:08:30.892Z,32.77
2018-05-19T18:10:58.396Z,35.10
2018-05-19T18:13:25.983Z,37.67
2018-05-19T18:15:53.469Z,38.73
2018-05-19T18:18:22.518Z,34.87
2018-05-19T18:20:50.021Z,38.80
2018-05-19T18:23:19.083Z,39.03
2018-05-19T18:25:46.591Z,38.83
2018-05-19T18:28:14.155Z,36.47
2018-05-19T18:30:42.435Z,33.10
2018-05-19T18:33:10.741Z,36.50
2018-05-19T18:35:38.285Z,32.50
2018-05-19T18:38:05.870Z,34.80
2018-05-19T18:40:33.378Z,36.97
2018-05-19T18:43:00.898Z,42.83
2018-05-19T18:45:29.614Z,44.87
2018-05-19T18:47:57.126Z,44.17
2018-05-19T18:50:24.701Z,48.10
2018-05-19T18:52:59.968Z,48.40
2018-05-19T18:55:27.570Z,46.00
2018-05-19T18:57:55.884Z,48.47
2018-05-19T19:00:23.436Z,43.70
2018-05-19T19:02:50.949Z,51.23
2018-05-19T19:05:18.538Z,45.13
2018-05-19T19:07:46.050Z,44.57
2018-05-19T19:10:13.597Z,47.80
2018-05-19T19:12:41.094Z,54.83
2018-05-19T19:15:08.639Z,60.77
2018-05-19T19:17:36.920Z,57.40
2018-05-19T19:20:05.250Z,71.87
2018-05-19T19:22:32.758Z,61.47
2018-05-19T19:25:00.344Z,81.63
2018-05-19T19:27:27.904Z,78.90
2018-05-19T19:29:55.442Z,64.40
2018-05-19T19:32:23.009Z,56.17
2018-05-19T19:34:50.507Z,58.93
2018-05-19T19:37:18.059Z,62.33
2018-05-19T19:39:45.564Z,63.47
2018-05-19T19:42:13.106Z,60.53
2018-05-19T19:44:40.614Z,58.10
2018-05-19T19:47:08.154Z,58.70
2018-05-19T19:49:35.669Z,60.13
2018-05-19T19:52:03.213Z,66.23
2018-05-19T19:54:30.715Z,69.50
2018-05-19T19:56:58.261Z,67.20
2018-05-19T19:59:26.617Z,64.57
2018-05-19T20:01:54.171Z,61.70
2018-05-19T20:04:21.689Z,71.20
2018-05-19T20:06:49.263Z,68.10
2018-05-19T20:09:16.770Z,67.10
2018-05-19T20:11:44.285Z,65.43
2018-05-19T20:14:11.854Z,74.70
2018-05-19T20:16:39.367Z,72.60
2018-05-19T20:19:07.698Z,69.00
2018-05-19T20:21:35.225Z,75.53
2018-05-19T20:24:03.873Z,91.43
2018-05-19T20:26:31.560Z,80.20
2018-05-19T20:28:59.871Z,85.30
2018-05-19T20:31:27.378Z,78.47
2018-05-19T20:33:54.953Z,78.00
2018-05-19T20:36:23.228Z,84.30
2018-05-19T20:38:51.544Z,79.20
2018-05-19T20:41:19.050Z,83.13
2018-05-19T20:43:47.506Z,89.23
2018-05-19T20:46:15.707Z,85.00
2018-05-19T20:48:44.020Z,84.60
2018-05-19T20:51:11.559Z,86.97
2018-05-19T20:53:39.859Z,82.70
2018-05-19T20:56:07.358Z,82.90
2018-05-19T20:58:35.611Z,78.67
2018-05-19T21:01:03.121Z,72.30
2018-05-19T21:03:30.689Z,71.83
2018-05-19T21:05:58.951Z,70.03
2018-05-19T21:08:27.231Z,71.07
2018-05-19T21:10:55.552Z,73.70
2018-05-19T21:13:23.069Z,69.97
2018-05-19T21:15:50.616Z,69.23
2018-05-19T21:18:18.924Z,77.40
2018-05-19T21:20:46.481Z,75.87
2018-05-19T21:23:14.570Z,77.73
2018-05-19T21:25:42.149Z,76.27
2018-05-19T21:28:09.656Z,74.60
2018-05-19T21:30:38.021Z,69.67
2018-05-19T21:33:06.580Z,72.43
2018-05-19T21:35:34.143Z,70.20
2018-05-19T21:38:01.663Z,64.23
2018-05-19T21:40:29.224Z,74.93
2018-05-19T21:42:56.754Z,71.13
2018-05-19T21:45:25.055Z,65.53
2018-05-19T21:47:52.576Z,116.30
2018-05-19T21:50:20.144Z,132.73
2018-05-19T21:52:48.417Z,81.07
2018-05-19T21:55:16.690Z,70.20
2018-05-19T21:57:45.017Z,61.83
2018-05-19T22:00:12.533Z,61.77
2018-05-19T22:02:40.101Z,60.10
2018-05-19T22:05:08.366Z,65.07
2018-05-19T22:07:36.779Z,81.90
2018-05-19T22:10:04.274Z,77.40
2018-05-19T22:12:31.818Z,76.57
2018-05-19T22:14:59.328Z,75.37
2018-05-19T22:17:26.862Z,95.90
2018-05-19T22:19:54.377Z,100.87
2018-05-19T22:22:22.035Z,107.67
2018-05-19T22:24:50.265Z,92.30
2018-05-19T22:27:18.604Z,88.43
2018-05-19T22:29:46.156Z,90.57
2018-05-19T22:32:13.708Z,89.47
2018-05-19T22:34:41.198Z,86.23
2018-05-19T22:37:08.738Z,91.50
2018-05-19T22:39:36.265Z,79.97
2018-05-19T22:42:03.822Z,84.60
2018-05-19T22:44:31.335Z,79.17
2018-05-19T22:46:58.872Z,78.00
2018-05-19T22:49:26.415Z,68.90
2018-05-19T22:51:53.923Z,68.03
2018-05-19T22:54:21.479Z,61.50
2018-05-19T22:56:48.975Z,64.53
2018-05-19T22:59:16.517Z,67.00
2018-05-19T23:01:44.783Z,72.73
2018-05-19T23:04:12.329Z,64.07
2018-05-19T23:06:39.893Z,69.20
2018-05-19T23:09:07.402Z,60.10
2018-05-19T23:11:34.968Z,60.20
2018-05-19T23:14:02.469Z,47.73
2018-05-19T23:16:30.047Z,44.83
2018-05-19T23:18:57.717Z,38.00
2018-05-19T23:21:25.289Z,46.40
2018-05-19T23:23:52.847Z,47.93
2018-05-19T23:26:20.402Z,50.30
2018-05-19T23:28:48.678Z,58.90
2018-05-19T23:31:17.077Z,51.10
2018-05-19T23:33:44.598Z,49.80
2018-05-19T23:36:13.001Z,47.70
2018-05-19T23:38:40.506Z,31.43
2018-05-19T23:41:08.125Z,39.93
2018-05-19T23:43:35.667Z,30.90
2018-05-19T23:46:03.931Z,30.23
2018-05-19T23:48:32.265Z,44.13
2018-05-19T23:50:59.763Z,32.00
2018-05-19T23:53:27.303Z,39.70
2018-05-19T23:55:54.816Z,41.87
2018-05-19T23:58:22.350Z,34.23
